createdAt,value
2019-01-30T00:02:22.842Z,70.30
2019-01-30T00:04:52.147Z,70.20
2019-01-30T00:07:20.413Z,69.90
2019-01-30T00:09:48.384Z,70.00
2019-01-30T00:12:16.875Z,69.70
2019-01-30T00:14:46.255Z,69.20
2019-01-30T00:17:13.624Z,69.00
2019-01-30T00:19:41.244Z,69.20
2019-01-30T00:22:09.532Z,69.40
2019-01-30T00:24:37.540Z,69.40
2019-01-30T00:27:06.707Z,69.50
2019-01-30T00:29:36.323Z,69.00
2019-01-30T00:32:04.923Z,69.60
2019-01-30T00:34:32.596Z,69.40
2019-01-30T00:37:00.448Z,69.50
2019-01-30T00:39:28.819Z,70.60
2019-01-30T00:41:56.875Z,70.60
2019-01-30T00:44:25.548Z,68.50
2019-01-30T00:46:53.541Z,69.30
2019-01-30T00:49:22.067Z,70.10
2019-01-30T00:51:49.984Z,68.70
2019-01-30T00:54:17.636Z,67.70
2019-01-30T00:56:45.948Z,67.50
2019-01-30T00:59:13.946Z,68.80
2019-01-30T01:01:42.108Z,68.20
2019-01-30T01:04:10.152Z,68.70
2019-01-30T01:06:38.144Z,68.10
2019-01-30T01:09:09.355Z,69.50
2019-01-30T01:11:38.866Z,69.20
2019-01-30T01:14:06.763Z,67.90
2019-01-30T01:16:34.402Z,69.00
2019-01-30T01:21:31.487Z,68.10
2019-01-30T01:23:59.897Z,69.00
2019-01-30T01:26:27.983Z,69.00
2019-01-30T01:28:55.729Z,69.30
2019-01-30T01:31:25.311Z,68.00
2019-01-30T01:33:53.602Z,68.30
2019-01-30T01:36:22.056Z,68.80
2019-01-30T01:38:49.563Z,68.30
2019-01-30T01:41:17.978Z,69.30
2019-01-30T01:43:45.971Z,68.50
2019-01-30T01:46:15.662Z,68.30
2019-01-30T01:48:43.371Z,68.70
2019-01-30T01:51:11.531Z,69.60
2019-01-30T01:53:39.482Z,69.20
2019-01-30T01:56:07.119Z,68.70
2019-01-30T01:58:35.541Z,68.60
2019-01-30T02:01:05.346Z,68.60
2019-01-30T02:06:01.006Z,69.30
2019-01-30T02:08:29.261Z,68.80
2019-01-30T02:10:57.039Z,69.10
2019-01-30T02:13:24.687Z,68.10
2019-01-30T02:15:53.978Z,68.00
2019-01-30T02:18:23.393Z,68.50
2019-01-30T02:20:51.448Z,66.40
2019-01-30T02:23:20.043Z,68.20
2019-01-30T02:25:47.923Z,68.20
2019-01-30T02:28:15.790Z,67.90
2019-01-30T02:33:15.095Z,67.70
2019-01-30T02:35:42.661Z,67.60
2019-01-30T02:40:38.809Z,67.80
2019-01-30T02:43:07.035Z,68.00
2019-01-30T02:48:04.239Z,68.10
2019-01-30T02:50:34.964Z,67.90
2019-01-30T02:53:02.313Z,67.40
2019-01-30T02:55:31.081Z,67.40
2019-01-30T02:57:59.840Z,66.80
2019-01-30T03:00:28.901Z,66.90
2019-01-30T03:02:56.991Z,67.60
2019-01-30T03:05:25.662Z,66.80
2019-01-30T03:07:55.416Z,68.00
2019-01-30T03:10:23.495Z,66.80
2019-01-30T03:12:53.010Z,66.80
2019-01-30T03:15:20.987Z,67.10
2019-01-30T03:17:48.580Z,66.80
2019-01-30T03:20:19.022Z,66.00
2019-01-30T03:22:47.296Z,66.80
2019-01-30T03:25:15.530Z,66.50
2019-01-30T03:27:43.263Z,66.80
2019-01-30T03:30:13.838Z,66.80
2019-01-30T03:32:41.477Z,66.80
2019-01-30T03:35:09.695Z,66.70
2019-01-30T03:37:38.386Z,66.90
2019-01-30T03:40:09.074Z,66.70
2019-01-30T03:42:37.412Z,66.40
2019-01-30T03:45:06.052Z,66.80
2019-01-30T03:47:36.032Z,66.90
2019-01-30T03:50:06.423Z,66.00
2019-01-30T03:52:36.730Z,66.90
2019-01-30T03:55:05.354Z,66.20
2019-01-30T03:57:32.892Z,66.30
2019-01-30T04:00:00.529Z,66.20
2019-01-30T04:02:29.764Z,66.80
2019-01-30T04:04:59.271Z,66.70
2019-01-30T04:07:27.542Z,67.00
2019-01-30T04:09:56.027Z,66.80
2019-01-30T04:12:24.303Z,66.00
2019-01-30T04:14:53.500Z,66.50
2019-01-30T04:17:22.259Z,66.00
2019-01-30T04:19:50.677Z,66.00
2019-01-30T04:22:19.074Z,65.90
2019-01-30T04:24:47.365Z,66.80
2019-01-30T04:27:15.421Z,66.90
2019-01-30T04:29:43.654Z,66.90
2019-01-30T04:32:12.554Z,66.20
2019-01-30T04:34:40.679Z,66.50
2019-01-30T04:37:09.452Z,66.80
2019-01-30T04:39:37.595Z,66.50
2019-01-30T04:42:05.658Z,66.30
2019-01-30T04:44:34.194Z,66.00
2019-01-30T04:47:02.227Z,66.70
2019-01-30T04:51:59.503Z,65.90
2019-01-30T04:54:27.924Z,66.90
2019-01-30T04:56:55.582Z,65.90
2019-01-30T04:59:23.928Z,66.80
2019-01-30T05:01:53.006Z,66.30
2019-01-30T05:04:22.405Z,66.00
2019-01-30T05:06:50.916Z,65.90
2019-01-30T05:09:18.979Z,65.80
2019-01-30T05:11:46.945Z,65.70
2019-01-30T05:14:15.826Z,66.10
2019-01-30T05:16:43.819Z,66.80
2019-01-30T05:19:11.375Z,66.40
2019-01-30T05:26:34.922Z,66.70
2019-01-30T05:29:03.051Z,66.30
2019-01-30T05:36:29.096Z,67.10
2019-01-30T05:38:59.836Z,68.20
2019-01-30T05:43:56.586Z,66.00
2019-01-30T05:48:52.144Z,66.30
2019-01-30T05:53:49.479Z,65.60
2019-01-30T05:56:20.196Z,67.70
2019-01-30T05:58:48.195Z,72.70
2019-01-30T06:03:44.494Z,67.50
2019-01-30T06:06:13.191Z,78.60
2019-01-30T06:11:12.071Z,80.50
2019-01-30T06:13:39.933Z,66.10
2019-01-30T06:16:07.991Z,65.60
2019-01-30T06:21:03.972Z,66.20
2019-01-30T06:23:32.363Z,66.80
2019-01-30T06:26:01.073Z,66.80
2019-01-30T06:28:29.699Z,66.80
2019-01-30T06:30:59.096Z,67.50
2019-01-30T06:33:29.424Z,66.80
2019-01-30T06:35:57.347Z,71.10
2019-01-30T06:40:52.422Z,68.70
2019-01-30T06:45:47.838Z,71.40
2019-01-30T06:48:17.015Z,71.90
2019-01-30T06:50:45.516Z,72.30
2019-01-30T06:55:42.458Z,73.40
2019-01-30T06:58:10.483Z,79.80
2019-01-30T07:00:41.857Z,75.60
2019-01-30T07:03:09.968Z,75.60
2019-01-30T07:05:37.619Z,82.00
2019-01-30T07:08:05.624Z,76.70
2019-01-30T07:13:02.158Z,85.20
2019-01-30T07:15:30.218Z,84.00
2019-01-30T07:17:59.833Z,77.90
2019-01-30T07:20:31.204Z,83.50
2019-01-30T07:23:00.931Z,78.40
2019-01-30T07:25:29.336Z,77.90
2019-01-30T07:27:57.335Z,78.00
2019-01-30T07:32:55.309Z,84.30
2019-01-30T07:35:22.988Z,79.90
2019-01-30T07:37:51.279Z,80.10
2019-01-30T07:40:21.099Z,82.60
2019-01-30T07:45:18.193Z,87.10
2019-01-30T07:47:46.959Z,86.10
2019-01-30T07:52:43.499Z,80.90
2019-01-30T07:55:13.633Z,81.80
2019-01-30T07:57:42.114Z,81.60
2019-01-30T08:02:39.878Z,89.20
2019-01-30T08:05:08.240Z,87.50
2019-01-30T08:07:42.819Z,80.30
2019-01-30T08:12:40.020Z,81.80
2019-01-30T08:15:13.682Z,81.70
2019-01-30T08:17:43.448Z,81.70
2019-01-30T08:20:14.137Z,81.10
2019-01-30T08:22:42.292Z,85.10
2019-01-30T08:25:12.656Z,86.40
2019-01-30T08:27:41.402Z,81.00
2019-01-30T08:30:22.387Z,87.30
2019-01-30T08:32:44.421Z,88.50
2019-01-30T08:35:13.573Z,88.50
2019-01-30T08:40:10.465Z,89.00
2019-01-30T08:42:39.207Z,81.90
2019-01-30T08:45:09.371Z,80.70
2019-01-30T08:47:37.431Z,87.00
2019-01-30T08:50:06.232Z,80.90
2019-01-30T08:52:35.316Z,80.70
2019-01-30T08:55:04.282Z,88.00
2019-01-30T08:57:31.997Z,80.80
2019-01-30T09:00:00.314Z,80.00
2019-01-30T09:02:27.823Z,86.00
2019-01-30T09:09:52.325Z,81.60
2019-01-30T09:12:21.135Z,87.60
2019-01-30T09:14:49.110Z,82.80
2019-01-30T09:19:46.021Z,88.00
2019-01-30T09:22:14.884Z,88.10
2019-01-30T09:24:43.432Z,79.90
2019-01-30T09:27:11.937Z,79.90
2019-01-30T09:29:40.341Z,87.00
2019-01-30T09:32:09.391Z,79.30
2019-01-30T09:34:37.985Z,85.40
2019-01-30T09:37:09.629Z,87.10
2019-01-30T09:39:37.733Z,78.40
2019-01-30T09:44:34.034Z,86.10
2019-01-30T09:47:02.757Z,78.50
2019-01-30T09:49:32.714Z,83.10
2019-01-30T09:54:30.236Z,82.80
2019-01-30T09:59:26.412Z,77.80
2019-01-30T10:01:54.255Z,77.80
2019-01-30T10:04:22.931Z,78.20
2019-01-30T10:06:51.730Z,78.40
2019-01-30T10:09:20.522Z,78.60
2019-01-30T10:11:48.588Z,78.60
2019-01-30T10:14:16.710Z,78.00
2019-01-30T10:16:45.038Z,86.00
2019-01-30T10:19:13.334Z,78.10
2019-01-30T10:24:11.503Z,78.10
2019-01-30T10:26:40.212Z,78.30
2019-01-30T10:31:36.444Z,78.00
2019-01-30T10:34:06.367Z,85.20
2019-01-30T10:36:34.426Z,81.60
2019-01-30T10:39:04.487Z,78.10
2019-01-30T10:41:32.518Z,84.30
2019-01-30T10:48:56.123Z,83.30
2019-01-30T10:51:24.047Z,77.40
2019-01-30T10:56:19.524Z,78.80
2019-01-30T11:03:43.748Z,85.20
2019-01-30T11:11:08.454Z,77.60
2019-01-30T11:13:36.539Z,78.60
2019-01-30T11:16:04.087Z,77.30
2019-01-30T11:18:32.681Z,83.70
2019-01-30T11:21:00.877Z,81.40
2019-01-30T11:26:00.381Z,83.30
2019-01-30T11:28:29.228Z,80.80
2019-01-30T11:30:57.239Z,80.10
2019-01-30T11:35:54.015Z,85.50
2019-01-30T11:40:49.984Z,78.00
2019-01-30T11:43:19.205Z,84.60
2019-01-30T11:48:16.245Z,86.00
2019-01-30T11:50:46.475Z,78.30
2019-01-30T11:53:14.995Z,79.60
2019-01-30T11:55:45.891Z,86.00
2019-01-30T11:58:14.059Z,86.00
2019-01-30T12:01:03.608Z,78.00
2019-01-30T12:03:31.890Z,78.50
2019-01-30T12:06:01.285Z,83.20
2019-01-30T12:08:29.677Z,78.60
2019-01-30T12:13:29.182Z,87.20
2019-01-30T12:18:25.033Z,86.10
2019-01-30T12:20:52.666Z,80.20
2019-01-30T12:23:21.403Z,85.40
2019-01-30T12:25:52.439Z,81.30
2019-01-30T12:28:22.485Z,86.60
2019-01-30T12:33:19.904Z,87.60
2019-01-30T12:35:49.492Z,87.80
2019-01-30T12:38:19.539Z,80.50
2019-01-30T12:40:48.353Z,80.30
2019-01-30T12:43:16.703Z,81.00
2019-01-30T12:50:43.634Z,83.50
2019-01-30T12:53:14.338Z,81.10
2019-01-30T12:58:13.223Z,89.10
2019-01-30T13:00:41.566Z,82.10
2019-01-30T13:03:11.016Z,87.50
2019-01-30T13:05:40.117Z,87.60
2019-01-30T13:08:07.814Z,85.80
2019-01-30T13:10:36.140Z,90.20
2019-01-30T13:15:34.032Z,89.90
2019-01-30T13:18:01.867Z,82.90
2019-01-30T13:20:29.581Z,82.80
2019-01-30T13:23:01.359Z,82.50
2019-01-30T13:25:43.514Z,89.10
2019-01-30T13:28:12.119Z,84.40
2019-01-30T13:30:43.454Z,84.60
2019-01-30T13:33:11.978Z,85.00
2019-01-30T13:43:06.893Z,88.60
2019-01-30T13:45:36.579Z,89.80
2019-01-30T13:50:33.972Z,87.20
2019-01-30T13:53:03.565Z,86.00
2019-01-30T13:55:33.144Z,87.00
2019-01-30T14:00:36.038Z,90.90
2019-01-30T14:03:11.016Z,88.80
2019-01-30T14:05:41.261Z,91.70
2019-01-30T14:08:11.409Z,86.80
2019-01-30T14:13:11.852Z,90.30
2019-01-30T14:18:10.556Z,86.80
2019-01-30T14:20:39.649Z,91.50
2019-01-30T14:23:07.482Z,87.50
2019-01-30T14:25:37.280Z,88.10
2019-01-30T14:30:54.278Z,87.60
2019-01-30T14:33:25.454Z,87.40
2019-01-30T14:35:55.407Z,86.90
2019-01-30T14:38:25.801Z,86.80
2019-01-30T14:43:22.149Z,86.90
2019-01-30T14:45:50.703Z,91.20
2019-01-30T14:48:19.808Z,91.70
2019-01-30T14:50:51.046Z,86.10
2019-01-30T14:53:21.043Z,92.20
2019-01-30T14:58:21.852Z,92.00
2019-01-30T15:00:50.341Z,89.20
2019-01-30T15:03:18.853Z,88.90
2019-01-30T15:10:47.347Z,92.30
2019-01-30T15:13:15.523Z,90.70
2019-01-30T15:15:44.292Z,92.00
2019-01-30T15:18:13.253Z,93.90
2019-01-30T15:23:12.474Z,90.50
2019-01-30T15:25:41.011Z,92.90
2019-01-30T15:33:07.792Z,94.90
2019-01-30T15:38:06.721Z,95.20
2019-01-30T15:40:36.419Z,95.70
2019-01-30T15:48:02.613Z,93.60
2019-01-30T15:50:33.227Z,95.20
2019-01-30T15:58:03.297Z,92.50
2019-01-30T16:00:35.938Z,94.40
2019-01-30T16:10:37.912Z,91.30
2019-01-30T16:13:09.076Z,93.70
2019-01-30T16:20:39.057Z,91.60
2019-01-30T16:23:07.025Z,91.60
2019-01-30T16:30:31.886Z,93.80
2019-01-30T16:33:00.028Z,94.90
2019-01-30T16:35:29.855Z,95.00
2019-01-30T16:37:57.592Z,91.80
2019-01-30T16:40:25.991Z,95.10
2019-01-30T16:47:52.228Z,95.30
2019-01-30T16:50:20.915Z,93.60
2019-01-30T16:57:47.105Z,94.30
2019-01-30T17:00:29.487Z,91.90
2019-01-30T17:05:26.438Z,94.10
2019-01-30T17:12:52.681Z,94.50
2019-01-30T17:17:50.927Z,93.70
2019-01-30T17:20:25.149Z,93.20
2019-01-30T17:25:21.705Z,93.70
2019-01-30T17:27:49.461Z,94.40
2019-01-30T17:33:05.568Z,94.30
2019-01-30T17:35:35.954Z,91.60
2019-01-30T17:43:03.592Z,91.90
2019-01-30T17:45:33.656Z,92.00
2019-01-30T17:53:05.577Z,93.40
2019-01-30T17:55:34.770Z,94.90
2019-01-30T17:58:03.388Z,91.80
2019-01-30T18:03:25.708Z,95.10
2019-01-30T18:08:21.741Z,95.00
2019-01-30T18:13:21.570Z,94.60
2019-01-30T18:18:17.844Z,92.40
2019-01-30T18:20:46.582Z,92.00
2019-01-30T18:30:39.395Z,95.70
2019-01-30T18:33:07.544Z,92.60
2019-01-30T18:35:36.475Z,94.80
2019-01-30T18:38:05.463Z,92.60
2019-01-30T18:40:34.817Z,92.80
2019-01-30T18:43:03.086Z,96.30
2019-01-30T18:45:31.242Z,96.10
2019-01-30T18:50:29.474Z,94.50
2019-01-30T18:52:57.526Z,96.10
2019-01-30T18:58:05.455Z,95.80
2019-01-30T19:00:37.246Z,92.50
2019-01-30T19:05:35.134Z,94.90
2019-01-30T19:08:06.861Z,95.90
2019-01-30T19:10:34.320Z,95.70
2019-01-30T19:15:32.424Z,95.40
2019-01-30T19:23:03.282Z,92.20
2019-01-30T19:25:31.210Z,94.00
2019-01-30T19:30:29.956Z,93.90
2019-01-30T19:37:56.785Z,92.70
2019-01-30T19:40:26.261Z,94.60
2019-01-30T19:45:24.445Z,96.10
2019-01-30T19:47:52.645Z,93.00
2019-01-30T19:50:22.690Z,92.70
2019-01-30T19:55:20.299Z,96.40
2019-01-30T20:02:46.078Z,92.80
2019-01-30T20:10:13.996Z,94.00
2019-01-30T20:17:44.662Z,94.00
2019-01-30T20:22:41.088Z,93.60
2019-01-30T20:25:14.889Z,92.80
2019-01-30T20:30:17.417Z,94.20
2019-01-30T20:32:46.672Z,90.40
2019-01-30T20:37:43.145Z,93.40
2019-01-30T20:40:29.654Z,92.30
2019-01-30T20:43:03.384Z,92.70
2019-01-30T20:45:34.370Z,92.40
2019-01-30T20:50:34.880Z,89.50
2019-01-30T20:53:11.735Z,91.50
2019-01-30T21:03:09.928Z,90.00
2019-01-30T21:05:37.815Z,92.00
2019-01-30T21:08:07.927Z,88.30
2019-01-30T21:10:38.123Z,91.90
2019-01-30T21:18:05.873Z,92.10
2019-01-30T21:20:34.435Z,92.00
2019-01-30T21:30:31.329Z,89.60
2019-01-30T21:33:00.937Z,90.40
2019-01-30T21:37:57.246Z,92.00
2019-01-30T21:40:25.701Z,92.30
2019-01-30T21:47:52.454Z,86.10
2019-01-30T21:50:20.901Z,91.40
2019-01-30T21:55:20.635Z,87.50
2019-01-30T21:57:50.266Z,91.90
2019-01-30T22:00:20.216Z,86.50
2019-01-30T22:05:16.957Z,86.50
2019-01-30T22:07:46.551Z,91.30
2019-01-30T22:10:17.011Z,86.20
2019-01-30T22:15:13.870Z,86.70
2019-01-30T22:17:42.172Z,86.10
2019-01-30T22:25:19.895Z,91.00
2019-01-30T22:27:41.384Z,85.80
2019-01-30T22:30:14.860Z,84.60
2019-01-30T22:32:46.783Z,88.50
2019-01-30T22:35:14.748Z,89.60
2019-01-30T22:37:46.352Z,91.50
2019-01-30T22:42:46.847Z,91.90
2019-01-30T22:45:16.013Z,91.30
2019-01-30T22:52:46.050Z,91.80
2019-01-30T22:57:51.329Z,87.40
2019-01-30T23:00:52.765Z,91.90
2019-01-30T23:03:25.613Z,91.70
2019-01-30T23:09:01.908Z,91.50
2019-01-30T23:12:13.342Z,85.70
2019-01-30T23:14:52.488Z,91.40
2019-01-30T23:18:05.120Z,91.70
2019-01-30T23:20:49.577Z,86.00
2019-01-30T23:26:21.094Z,88.00
2019-01-30T23:29:42.833Z,91.00
2019-01-30T23:32:57.817Z,81.20
2019-01-30T23:35:55.679Z,81.40
2019-01-30T23:39:08.300Z,81.50
2019-01-30T23:42:05.959Z,82.20
2019-01-30T23:45:15.522Z,82.10
2019-01-30T23:48:21.482Z,82.60
2019-01-30T23:51:00.994Z,82.40
2019-01-30T23:54:12.300Z,82.20
2019-01-30T23:56:55.729Z,82.70
2019-01-30T23:59:50.134Z,82.30
